»·PEaware :: N280DV KVNY-KHND

N280DV :: KVNY-KHND

FLIGHT INFORMATION

Flight Status: Arrived
Operator: Privately registered:
United States
More flights under this callsign
Pilot: Ben F. (13029)
Aircraft: BOEING 737-300
(B733)
More flights by this aircraft type
Origin: KVNY Van Nuys
United States
Destination: KHND Henderson
United States
More flights between these airports :: More routes between these airports
Route: NUAL9 DAG JOMIX1
File this flight plan on PilotEdge
Remarks: RMK / SIMBRIEF
Altitude:
(Current/Filed)
31,000ft
Speed:
(Current/Filed)
441kts
Departed: 28-Jul-19 04:39 PM
Arrived: 28-Jul-19 05:29 PM
Distance/Time
Traveled:
196nm/0:50
Distance/Time
To Go:
Arrived

Flight Plot

Page will automatically refresh every two minutes.

Flight plan parsing failed; only flown route is shown


Map Options




Map Legend


Flown Route
Filed Route
Departure Airport
Arrival Airport
Navaid (VOR, NDB)
Fix

Horizontal Profiles

Position Reports

Time Latitude Longitude Heading Altitude Ground
Speed
28-Jul-19 16:06 34.209844 -118.487124 90 809ft 0kts
28-Jul-19 16:07 34.209844 -118.487124 90 809ft 0kts
28-Jul-19 16:08 34.209844 -118.487124 90 809ft 0kts
28-Jul-19 16:09 34.209844 -118.487124 90 809ft 0kts
28-Jul-19 16:10 34.209844 -118.487124 90 809ft 0kts
28-Jul-19 16:11 34.209844 -118.487124 90 809ft 0kts
28-Jul-19 16:12 34.209844 -118.487124 90 809ft 0kts
28-Jul-19 16:13 34.209844 -118.487124 90 809ft 0kts
28-Jul-19 16:14 34.209844 -118.487124 90 809ft 0kts
28-Jul-19 16:15 34.209844 -118.487124 90 809ft 0kts
28-Jul-19 16:16 34.209844 -118.487124 90 809ft 0kts
28-Jul-19 16:18 34.209844 -118.487124 90 809ft 0kts
28-Jul-19 16:19 34.209844 -118.487124 90 809ft 0kts
28-Jul-19 16:20 34.209844 -118.487124 90 809ft 0kts
28-Jul-19 16:21 34.209844 -118.487124 90 809ft 0kts
28-Jul-19 16:22 34.209844 -118.487124 90 809ft 0kts
28-Jul-19 16:23 34.209844 -118.487124 90 809ft 0kts
28-Jul-19 16:24 34.209844 -118.487124 90 809ft 0kts
28-Jul-19 16:25 34.209844 -118.487124 90 809ft 0kts
28-Jul-19 16:26 34.209844 -118.487124 90 809ft 0kts
28-Jul-19 16:27 34.209844 -118.487124 90 809ft 0kts
28-Jul-19 16:28 34.209844 -118.487124 90 809ft 0kts
28-Jul-19 16:29 34.209844 -118.487124 90 809ft 0kts
28-Jul-19 16:30 34.209844 -118.487124 90 809ft 0kts
28-Jul-19 16:31 34.209846 -118.487087 86 809ft 0kts
28-Jul-19 16:32 34.210282 -118.487884 271 809ft 0kts
28-Jul-19 16:33 34.210282 -118.487884 271 809ft 0kts
28-Jul-19 16:34 34.211379 -118.488480 356 809ft 14kts
28-Jul-19 16:35 34.215399 -118.488886 352 809ft 15kts
28-Jul-19 16:36 34.218885 -118.490323 266 809ft 0kts
28-Jul-19 16:36 34.218885 -118.490323 266 809ft 0kts
28-Jul-19 16:38 34.218367 -118.491184 174 809ft 0kts
28-Jul-19 16:38 34.216072 -118.490969 176 809ft 52kts
28-Jul-19 16:39 34.171525 -118.482447 168 2262ft 222kts
28-Jul-19 16:41 34.120644 -118.404823 114 4069ft 291kts
28-Jul-19 16:41 34.139954 -118.332437 26 4001ft 277kts
28-Jul-19 16:42 34.216419 -118.333748 352 5987ft 285kts
28-Jul-19 16:43 34.286328 -118.361881 313 9048ft 284kts
28-Jul-19 16:44 34.346978 -118.425621 321 12010ft 294kts
28-Jul-19 16:45 34.419003 -118.403693 51 13976ft 321kts
28-Jul-19 16:46 34.476057 -118.312386 51 14026ft 361kts
28-Jul-19 16:47 34.538097 -118.213298 51 14769ft 373kts
28-Jul-19 16:48 34.601726 -118.111482 51 17032ft 384kts
28-Jul-19 16:49 34.639866 -117.990743 82 18966ft 401kts
28-Jul-19 16:50 34.654419 -117.853925 82 20926ft 412kts
28-Jul-19 16:51 34.675888 -117.715879 72 22890ft 419kts
28-Jul-19 16:52 34.707810 -117.590895 73 24605ft 426kts
28-Jul-19 16:53 34.741033 -117.462701 73 26060ft 436kts
28-Jul-19 16:54 34.773164 -117.335382 74 27794ft 434kts
28-Jul-19 16:55 34.806146 -117.204737 75 29435ft 430kts
28-Jul-19 16:56 34.832559 -117.099709 75 30539ft 429kts
28-Jul-19 16:57 34.861534 -116.983985 75 31040ft 428kts
28-Jul-19 16:58 34.896206 -116.845184 74 30993ft 422kts
28-Jul-19 16:59 34.930578 -116.707252 74 31003ft 426kts
28-Jul-19 17:00 34.962146 -116.567424 92 30959ft 425kts
28-Jul-19 17:01 34.941467 -116.426470 101 30996ft 422kts
28-Jul-19 17:02 34.921675 -116.285274 102 31002ft 420kts
28-Jul-19 17:03 34.902066 -116.145618 102 31040ft 419kts
28-Jul-19 17:04 34.882173 -116.005321 102 29618ft 425kts
28-Jul-19 17:05 34.861966 -115.864147 101 27631ft 427kts
28-Jul-19 17:06 34.841207 -115.720130 101 25147ft 432kts
28-Jul-19 17:07 34.820511 -115.577692 100 22543ft 421kts
28-Jul-19 17:08 34.800070 -115.438291 100 20007ft 409kts
28-Jul-19 17:09 34.799552 -115.308694 55 18348ft 391kts
28-Jul-19 17:10 34.886958 -115.234182 33 17006ft 378kts
28-Jul-19 17:11 34.965784 -115.163917 35 16335ft 336kts
28-Jul-19 17:12 35.040855 -115.095553 35 15131ft 331kts
28-Jul-19 17:13 35.111324 -115.031218 35 13994ft 322kts
28-Jul-19 17:14 35.182956 -114.965839 35 12984ft 315kts
28-Jul-19 17:15 35.263609 -114.930609 12 11979ft 308kts
28-Jul-19 17:16 35.347090 -114.907024 12 10977ft 305kts
28-Jul-19 17:17 35.429733 -114.883702 8 10002ft 299kts
28-Jul-19 17:18 35.509407 -114.904961 342 8415ft 292kts
28-Jul-19 17:19 35.586309 -114.933081 343 7284ft 287kts
28-Jul-19 17:20 35.663593 -114.961218 343 7330ft 288kts
28-Jul-19 17:21 35.739065 -114.994197 320 7330ft 287kts
28-Jul-19 17:22 35.760391 -115.085557 270 6492ft 282kts
28-Jul-19 17:23 35.776127 -115.169420 335 6398ft 238kts
28-Jul-19 17:24 35.831632 -115.153724 21 6009ft 203kts
28-Jul-19 17:25 35.882417 -115.137455 7 4563ft 181kts
28-Jul-19 17:26 35.930548 -115.135477 359 3170ft 167kts
28-Jul-19 17:27 35.972589 -115.135405 0 2450ft 56kts
28-Jul-19 17:28 35.974416 -115.136121 271 2450ft 0kts
28-Jul-19 17:29 35.974417 -115.136183 270 2450ft 1kts
28-Jul-19 17:30 35.976488 -115.137783 264 2450ft 18kts

Navigation Log

Ident Type
Flight plan parsing failed, navigation log unavailable